sensor_id;sensor_type;location;lat;lon;timestamp;P1;durP1;ratioP1;P2;durP2;ratioP2
10295;SDS011;5193;51.032;6.356;2022-10-18T00:01:35;9.87;;;5.90;;
10295;SDS011;5193;51.032;6.356;2022-10-18T00:04:01;10.40;;;6.53;;
10295;SDS011;5193;51.032;6.356;2022-10-18T00:06:27;8.43;;;5.80;;
10295;SDS011;5193;51.032;6.356;2022-10-18T00:08:53;11.90;;;7.17;;
10295;SDS011;5193;51.032;6.356;2022-10-18T00:11:18;7.90;;;6.13;;
10295;SDS011;5193;51.032;6.356;2022-10-18T00:13:44;8.03;;;5.67;;
10295;SDS011;5193;51.032;6.356;2022-10-18T00:16:12;10.67;;;6.63;;
10295;SDS011;5193;51.032;6.356;2022-10-18T00:18:40;12.37;;;6.73;;
10295;SDS011;5193;51.032;6.356;2022-10-18T00:21:07;8.40;;;6.67;;
10295;SDS011;5193;51.032;6.356;2022-10-18T00:23:39;10.63;;;7.87;;
10295;SDS011;5193;51.032;6.356;2022-10-18T00:28:51;10.57;;;7.40;;
10295;SDS011;5193;51.032;6.356;2022-10-18T00:31:22;9.70;;;7.50;;
10295;SDS011;5193;51.032;6.356;2022-10-18T00:33:49;10.13;;;7.27;;
10295;SDS011;5193;51.032;6.356;2022-10-18T00:36:16;10.50;;;8.00;;
10295;SDS011;5193;51.032;6.356;2022-10-18T00:38:43;9.77;;;7.97;;
10295;SDS011;5193;51.032;6.356;2022-10-18T00:41:10;13.87;;;7.97;;
10295;SDS011;5193;51.032;6.356;2022-10-18T00:46:36;12.53;;;8.63;;
10295;SDS011;5193;51.032;6.356;2022-10-18T00:49:46;14.27;;;8.73;;
10295;SDS011;5193;51.032;6.356;2022-10-18T00:52:05;11.07;;;8.83;;
10295;SDS011;5193;51.032;6.356;2022-10-18T00:54:34;10.37;;;8.67;;
10295;SDS011;5193;51.032;6.356;2022-10-18T00:57:02;11.53;;;9.00;;
10295;SDS011;5193;51.032;6.356;2022-10-18T00:59:28;14.00;;;9.27;;
10295;SDS011;5193;51.032;6.356;2022-10-18T01:01:54;13.13;;;8.60;;
10295;SDS011;5193;51.032;6.356;2022-10-18T01:04:20;11.23;;;8.93;;
10295;SDS011;5193;51.032;6.356;2022-10-18T01:06:52;13.43;;;9.30;;
10295;SDS011;5193;51.032;6.356;2022-10-18T01:09:37;10.53;;;8.53;;
10295;SDS011;5193;51.032;6.356;2022-10-18T01:17:53;14.77;;;9.50;;
10295;SDS011;5193;51.032;6.356;2022-10-18T01:29:14;14.20;;;9.23;;
10295;SDS011;5193;51.032;6.356;2022-10-18T01:31:59;10.20;;;8.23;;
10295;SDS011;5193;51.032;6.356;2022-10-18T01:34:32;13.73;;;9.10;;
10295;SDS011;5193;51.032;6.356;2022-10-18T01:37:00;12.73;;;8.70;;
10295;SDS011;5193;51.032;6.356;2022-10-18T01:39:33;14.53;;;8.67;;
10295;SDS011;5193;51.032;6.356;2022-10-18T01:42:02;16.93;;;8.50;;
10295;SDS011;5193;51.032;6.356;2022-10-18T01:44:31;12.50;;;8.37;;
10295;SDS011;5193;51.032;6.356;2022-10-18T01:46:59;10.37;;;8.37;;
10295;SDS011;5193;51.032;6.356;2022-10-18T01:49:25;16.37;;;8.67;;
10295;SDS011;5193;51.032;6.356;2022-10-18T01:51:51;9.43;;;7.83;;
10295;SDS011;5193;51.032;6.356;2022-10-18T01:54:18;12.07;;;8.77;;
10295;SDS011;5193;51.032;6.356;2022-10-18T01:59:28;10.47;;;8.50;;
10295;SDS011;5193;51.032;6.356;2022-10-18T02:08:05;9.60;;;8.37;;
10295;SDS011;5193;51.032;6.356;2022-10-18T02:10:40;10.23;;;8.10;;
10295;SDS011;5193;51.032;6.356;2022-10-18T02:13:10;9.93;;;8.30;;
10295;SDS011;5193;51.032;6.356;2022-10-18T02:15:40;9.07;;;7.97;;
10295;SDS011;5193;51.032;6.356;2022-10-18T02:18:17;9.90;;;8.00;;
10295;SDS011;5193;51.032;6.356;2022-10-18T02:20:47;11.03;;;8.80;;
10295;SDS011;5193;51.032;6.356;2022-10-18T02:23:13;12.10;;;8.70;;
10295;SDS011;5193;51.032;6.356;2022-10-18T02:25:43;9.47;;;8.47;;
10295;SDS011;5193;51.032;6.356;2022-10-18T02:28:09;10.10;;;8.13;;
10295;SDS011;5193;51.032;6.356;2022-10-18T02:30:36;16.13;;;9.00;;
10295;SDS011;5193;51.032;6.356;2022-10-18T02:33:10;11.20;;;8.07;;
10295;SDS011;5193;51.032;6.356;2022-10-18T02:35:50;15.03;;;9.93;;
10295;SDS011;5193;51.032;6.356;2022-10-18T02:38:20;11.77;;;9.43;;
10295;SDS011;5193;51.032;6.356;2022-10-18T02:40:49;13.53;;;9.73;;
10295;SDS011;5193;51.032;6.356;2022-10-18T02:43:14;13.27;;;9.43;;
10295;SDS011;5193;51.032;6.356;2022-10-18T02:45:40;11.63;;;8.50;;
10295;SDS011;5193;51.032;6.356;2022-10-18T02:48:06;14.20;;;9.37;;
10295;SDS011;5193;51.032;6.356;2022-10-18T02:50:32;13.60;;;9.40;;
10295;SDS011;5193;51.032;6.356;2022-10-18T02:52:57;13.50;;;9.60;;
10295;SDS011;5193;51.032;6.356;2022-10-18T02:55:23;14.13;;;9.60;;
10295;SDS011;5193;51.032;6.356;2022-10-18T02:57:48;16.23;;;9.20;;
10295;SDS011;5193;51.032;6.356;2022-10-18T03:00:14;11.87;;;9.43;;
10295;SDS011;5193;51.032;6.356;2022-10-18T03:02:39;13.50;;;9.93;;
10295;SDS011;5193;51.032;6.356;2022-10-18T03:05:05;15.33;;;9.40;;
10295;SDS011;5193;51.032;6.356;2022-10-18T03:07:31;14.40;;;9.67;;
10295;SDS011;5193;51.032;6.356;2022-10-18T03:09:56;14.53;;;10.27;;
10295;SDS011;5193;51.032;6.356;2022-10-18T03:12:22;15.10;;;10.17;;
10295;SDS011;5193;51.032;6.356;2022-10-18T03:14:47;17.27;;;10.10;;
10295;SDS011;5193;51.032;6.356;2022-10-18T03:17:13;13.57;;;9.17;;
10295;SDS011;5193;51.032;6.356;2022-10-18T03:19:39;14.77;;;10.10;;
10295;SDS011;5193;51.032;6.356;2022-10-18T03:22:04;13.23;;;9.40;;
10295;SDS011;5193;51.032;6.356;2022-10-18T03:24:30;14.63;;;10.23;;
10295;SDS011;5193;51.032;6.356;2022-10-18T03:26:55;12.17;;;10.13;;
10295;SDS011;5193;51.032;6.356;2022-10-18T03:29:21;12.30;;;8.93;;
10295;SDS011;5193;51.032;6.356;2022-10-18T03:31:46;12.57;;;9.13;;
10295;SDS011;5193;51.032;6.356;2022-10-18T03:34:12;11.77;;;9.03;;
10295;SDS011;5193;51.032;6.356;2022-10-18T03:36:39;11.97;;;9.17;;
10295;SDS011;5193;51.032;6.356;2022-10-18T03:39:05;15.00;;;10.63;;
10295;SDS011;5193;51.032;6.356;2022-10-18T03:41:31;19.27;;;10.97;;
10295;SDS011;5193;51.032;6.356;2022-10-18T03:43:57;17.17;;;11.37;;
10295;SDS011;5193;51.032;6.356;2022-10-18T03:46:22;15.87;;;10.17;;
10295;SDS011;5193;51.032;6.356;2022-10-18T03:48:48;19.77;;;12.17;;
10295;SDS011;5193;51.032;6.356;2022-10-18T03:51:13;19.47;;;13.03;;
10295;SDS011;5193;51.032;6.356;2022-10-18T03:53:39;19.07;;;12.97;;
10295;SDS011;5193;51.032;6.356;2022-10-18T03:56:04;19.47;;;12.63;;
10295;SDS011;5193;51.032;6.356;2022-10-18T03:58:30;17.53;;;12.27;;
10295;SDS011;5193;51.032;6.356;2022-10-18T04:00:56;20.43;;;12.77;;
10295;SDS011;5193;51.032;6.356;2022-10-18T04:03:22;15.83;;;12.30;;
10295;SDS011;5193;51.032;6.356;2022-10-18T04:05:48;17.03;;;11.97;;
10295;SDS011;5193;51.032;6.356;2022-10-18T04:08:14;21.13;;;12.13;;
10295;SDS011;5193;51.032;6.356;2022-10-18T04:10:40;16.30;;;11.37;;
10295;SDS011;5193;51.032;6.356;2022-10-18T04:13:07;17.97;;;11.47;;
10295;SDS011;5193;51.032;6.356;2022-10-18T04:15:33;19.17;;;12.13;;
10295;SDS011;5193;51.032;6.356;2022-10-18T04:17:59;17.70;;;12.83;;
10295;SDS011;5193;51.032;6.356;2022-10-18T04:20:25;21.73;;;13.83;;
10295;SDS011;5193;51.032;6.356;2022-10-18T04:22:51;37.13;;;25.60;;
10295;SDS011;5193;51.032;6.356;2022-10-18T04:25:18;34.17;;;22.37;;
10295;SDS011;5193;51.032;6.356;2022-10-18T04:27:45;27.33;;;18.30;;
10295;SDS011;5193;51.032;6.356;2022-10-18T04:30:10;19.60;;;12.93;;
10295;SDS011;5193;51.032;6.356;2022-10-18T04:32:36;22.33;;;13.00;;
10295;SDS011;5193;51.032;6.356;2022-10-18T04:35:02;25.07;;;14.20;;
10295;SDS011;5193;51.032;6.356;2022-10-18T04:37:28;26.47;;;18.17;;
10295;SDS011;5193;51.032;6.356;2022-10-18T04:39:54;21.13;;;14.23;;
10295;SDS011;5193;51.032;6.356;2022-10-18T04:42:20;23.23;;;14.43;;
10295;SDS011;5193;51.032;6.356;2022-10-18T04:44:46;24.07;;;14.07;;
10295;SDS011;5193;51.032;6.356;2022-10-18T04:47:11;23.73;;;15.07;;
10295;SDS011;5193;51.032;6.356;2022-10-18T04:49:37;28.83;;;16.37;;
10295;SDS011;5193;51.032;6.356;2022-10-18T04:52:02;30.87;;;16.50;;
10295;SDS011;5193;51.032;6.356;2022-10-18T04:54:28;27.13;;;16.33;;
10295;SDS011;5193;51.032;6.356;2022-10-18T04:56:54;29.90;;;16.30;;
10295;SDS011;5193;51.032;6.356;2022-10-18T04:59:19;25.60;;;15.40;;
10295;SDS011;5193;51.032;6.356;2022-10-18T05:01:45;25.83;;;16.33;;
10295;SDS011;5193;51.032;6.356;2022-10-18T05:04:11;30.70;;;16.90;;
10295;SDS011;5193;51.032;6.356;2022-10-18T05:06:36;27.67;;;16.00;;
10295;SDS011;5193;51.032;6.356;2022-10-18T05:09:02;34.73;;;17.97;;
10295;SDS011;5193;51.032;6.356;2022-10-18T05:11:28;31.80;;;18.37;;
10295;SDS011;5193;51.032;6.356;2022-10-18T05:13:53;35.40;;;18.47;;
10295;SDS011;5193;51.032;6.356;2022-10-18T05:16:19;33.73;;;18.13;;
10295;SDS011;5193;51.032;6.356;2022-10-18T05:18:44;31.70;;;18.00;;
10295;SDS011;5193;51.032;6.356;2022-10-18T05:21:10;31.77;;;18.73;;
10295;SDS011;5193;51.032;6.356;2022-10-18T05:23:36;32.87;;;17.70;;
10295;SDS011;5193;51.032;6.356;2022-10-18T05:26:02;30.13;;;18.13;;
10295;SDS011;5193;51.032;6.356;2022-10-18T05:28:30;30.37;;;18.97;;
10295;SDS011;5193;51.032;6.356;2022-10-18T05:31:00;32.43;;;18.73;;
10295;SDS011;5193;51.032;6.356;2022-10-18T05:33:26;36.80;;;19.67;;
10295;SDS011;5193;51.032;6.356;2022-10-18T05:35:52;34.83;;;19.40;;
10295;SDS011;5193;51.032;6.356;2022-10-18T05:38:18;34.70;;;19.90;;
10295;SDS011;5193;51.032;6.356;2022-10-18T05:40:44;36.27;;;19.90;;
10295;SDS011;5193;51.032;6.356;2022-10-18T05:43:09;31.83;;;18.87;;
10295;SDS011;5193;51.032;6.356;2022-10-18T05:45:35;35.33;;;20.47;;
10295;SDS011;5193;51.032;6.356;2022-10-18T05:48:01;38.53;;;20.50;;
10295;SDS011;5193;51.032;6.356;2022-10-18T05:50:26;33.97;;;20.10;;
10295;SDS011;5193;51.032;6.356;2022-10-18T05:52:54;38.77;;;19.33;;
10295;SDS011;5193;51.032;6.356;2022-10-18T05:55:21;34.40;;;19.90;;
10295;SDS011;5193;51.032;6.356;2022-10-18T05:57:50;35.30;;;19.00;;
10295;SDS011;5193;51.032;6.356;2022-10-18T06:00:16;34.13;;;18.47;;
10295;SDS011;5193;51.032;6.356;2022-10-18T06:02:42;35.20;;;19.53;;
10295;SDS011;5193;51.032;6.356;2022-10-18T06:05:08;34.97;;;20.83;;
10295;SDS011;5193;51.032;6.356;2022-10-18T06:07:33;30.07;;;18.97;;
10295;SDS011;5193;51.032;6.356;2022-10-18T06:09:59;33.67;;;20.10;;
10295;SDS011;5193;51.032;6.356;2022-10-18T06:12:25;27.63;;;18.57;;
10295;SDS011;5193;51.032;6.356;2022-10-18T06:14:50;27.70;;;18.23;;
10295;SDS011;5193;51.032;6.356;2022-10-18T06:17:16;28.60;;;18.37;;
10295;SDS011;5193;51.032;6.356;2022-10-18T06:19:41;28.40;;;17.43;;
10295;SDS011;5193;51.032;6.356;2022-10-18T06:22:10;26.43;;;17.47;;
10295;SDS011;5193;51.032;6.356;2022-10-18T06:24:36;31.33;;;19.23;;
10295;SDS011;5193;51.032;6.356;2022-10-18T06:27:02;30.67;;;19.03;;
10295;SDS011;5193;51.032;6.356;2022-10-18T06:29:36;37.07;;;19.80;;
10295;SDS011;5193;51.032;6.356;2022-10-18T06:32:03;34.03;;;20.07;;
10295;SDS011;5193;51.032;6.356;2022-10-18T06:34:30;32.37;;;19.47;;
10295;SDS011;5193;51.032;6.356;2022-10-18T06:36:56;30.63;;;19.60;;
10295;SDS011;5193;51.032;6.356;2022-10-18T06:39:21;34.87;;;21.40;;
10295;SDS011;5193;51.032;6.356;2022-10-18T06:41:47;35.30;;;20.37;;
10295;SDS011;5193;51.032;6.356;2022-10-18T06:44:13;35.23;;;21.13;;
10295;SDS011;5193;51.032;6.356;2022-10-18T06:46:42;40.63;;;21.53;;
10295;SDS011;5193;51.032;6.356;2022-10-18T06:49:09;37.20;;;21.37;;
10295;SDS011;5193;51.032;6.356;2022-10-18T06:51:35;34.13;;;20.10;;
10295;SDS011;5193;51.032;6.356;2022-10-18T06:54:01;39.87;;;22.00;;
10295;SDS011;5193;51.032;6.356;2022-10-18T06:56:27;39.57;;;21.53;;
10295;SDS011;5193;51.032;6.356;2022-10-18T06:58:53;43.00;;;22.60;;
10295;SDS011;5193;51.032;6.356;2022-10-18T07:01:19;47.40;;;24.60;;
10295;SDS011;5193;51.032;6.356;2022-10-18T07:03:45;49.10;;;24.63;;
10295;SDS011;5193;51.032;6.356;2022-10-18T07:06:12;51.00;;;25.57;;
10295;SDS011;5193;51.032;6.356;2022-10-18T07:08:39;57.33;;;27.33;;
10295;SDS011;5193;51.032;6.356;2022-10-18T07:11:05;56.00;;;28.17;;
10295;SDS011;5193;51.032;6.356;2022-10-18T07:13:32;69.77;;;29.43;;
10295;SDS011;5193;51.032;6.356;2022-10-18T07:15:59;59.27;;;29.43;;
10295;SDS011;5193;51.032;6.356;2022-10-18T07:18:25;72.17;;;31.60;;
10295;SDS011;5193;51.032;6.356;2022-10-18T07:20:51;71.60;;;30.03;;
10295;SDS011;5193;51.032;6.356;2022-10-18T07:23:16;76.17;;;29.77;;
10295;SDS011;5193;51.032;6.356;2022-10-18T07:25:42;68.33;;;30.50;;
10295;SDS011;5193;51.032;6.356;2022-10-18T07:28:08;78.87;;;31.47;;
10295;SDS011;5193;51.032;6.356;2022-10-18T07:30:33;82.37;;;31.90;;
10295;SDS011;5193;51.032;6.356;2022-10-18T07:32:59;79.33;;;33.73;;
10295;SDS011;5193;51.032;6.356;2022-10-18T07:35:24;72.63;;;32.17;;
10295;SDS011;5193;51.032;6.356;2022-10-18T07:37:50;82.23;;;31.83;;
10295;SDS011;5193;51.032;6.356;2022-10-18T07:40:16;79.47;;;32.83;;
10295;SDS011;5193;51.032;6.356;2022-10-18T07:42:42;83.77;;;33.50;;
10295;SDS011;5193;51.032;6.356;2022-10-18T07:45:07;83.00;;;33.23;;
10295;SDS011;5193;51.032;6.356;2022-10-18T07:47:33;88.07;;;34.83;;
10295;SDS011;5193;51.032;6.356;2022-10-18T07:49:59;84.53;;;34.97;;
10295;SDS011;5193;51.032;6.356;2022-10-18T07:52:24;90.73;;;34.53;;
10295;SDS011;5193;51.032;6.356;2022-10-18T07:54:50;91.73;;;36.13;;
10295;SDS011;5193;51.032;6.356;2022-10-18T07:57:15;92.10;;;36.07;;
10295;SDS011;5193;51.032;6.356;2022-10-18T07:59:41;92.70;;;35.50;;
10295;SDS011;5193;51.032;6.356;2022-10-18T08:02:10;89.67;;;36.03;;
10295;SDS011;5193;51.032;6.356;2022-10-18T08:04:35;87.07;;;36.23;;
10295;SDS011;5193;51.032;6.356;2022-10-18T08:07:01;103.40;;;36.23;;
10295;SDS011;5193;51.032;6.356;2022-10-18T08:09:26;78.43;;;35.17;;
10295;SDS011;5193;51.032;6.356;2022-10-18T08:11:52;86.83;;;36.27;;
10295;SDS011;5193;51.032;6.356;2022-10-18T08:14:18;91.83;;;36.17;;
10295;SDS011;5193;51.032;6.356;2022-10-18T08:16:43;82.90;;;35.20;;
10295;SDS011;5193;51.032;6.356;2022-10-18T08:19:09;82.37;;;35.47;;
10295;SDS011;5193;51.032;6.356;2022-10-18T08:21:34;97.33;;;36.77;;
10295;SDS011;5193;51.032;6.356;2022-10-18T08:24:00;94.93;;;37.20;;
10295;SDS011;5193;51.032;6.356;2022-10-18T08:26:25;92.50;;;37.50;;
10295;SDS011;5193;51.032;6.356;2022-10-18T08:28:51;96.90;;;37.97;;
10295;SDS011;5193;51.032;6.356;2022-10-18T08:31:17;91.30;;;36.73;;
10295;SDS011;5193;51.032;6.356;2022-10-18T08:33:43;100.77;;;37.73;;
10295;SDS011;5193;51.032;6.356;2022-10-18T08:36:11;109.40;;;40.20;;
10295;SDS011;5193;51.032;6.356;2022-10-18T08:38:39;104.47;;;38.67;;
10295;SDS011;5193;51.032;6.356;2022-10-18T08:41:22;94.37;;;37.37;;
10295;SDS011;5193;51.032;6.356;2022-10-18T08:44:37;89.70;;;37.13;;
10295;SDS011;5193;51.032;6.356;2022-10-18T08:47:38;83.07;;;34.20;;
10295;SDS011;5193;51.032;6.356;2022-10-18T08:49:49;83.70;;;36.73;;
10295;SDS011;5193;51.032;6.356;2022-10-18T08:52:37;91.43;;;37.33;;
10295;SDS011;5193;51.032;6.356;2022-10-18T08:55:11;88.30;;;36.67;;
10295;SDS011;5193;51.032;6.356;2022-10-18T08:57:48;94.30;;;38.90;;
10295;SDS011;5193;51.032;6.356;2022-10-18T09:00:15;109.03;;;39.67;;
10295;SDS011;5193;51.032;6.356;2022-10-18T09:05:27;110.27;;;40.07;;
10295;SDS011;5193;51.032;6.356;2022-10-18T09:16:43;94.57;;;38.67;;
10295;SDS011;5193;51.032;6.356;2022-10-18T09:19:45;90.97;;;38.53;;
10295;SDS011;5193;51.032;6.356;2022-10-18T09:22:13;81.63;;;35.40;;
10295;SDS011;5193;51.032;6.356;2022-10-18T09:25:01;76.70;;;33.60;;
10295;SDS011;5193;51.032;6.356;2022-10-18T09:27:52;72.67;;;33.30;;
10295;SDS011;5193;51.032;6.356;2022-10-18T09:30:35;64.70;;;32.57;;
10295;SDS011;5193;51.032;6.356;2022-10-18T09:36:01;63.70;;;29.70;;
10295;SDS011;5193;51.032;6.356;2022-10-18T09:38:42;69.83;;;32.23;;
10295;SDS011;5193;51.032;6.356;2022-10-18T09:41:14;60.37;;;30.43;;
10295;SDS011;5193;51.032;6.356;2022-10-18T09:43:57;63.17;;;31.20;;
10295;SDS011;5193;51.032;6.356;2022-10-18T09:46:44;61.60;;;29.33;;
10295;SDS011;5193;51.032;6.356;2022-10-18T09:49:15;63.90;;;29.67;;
10295;SDS011;5193;51.032;6.356;2022-10-18T09:51:44;61.40;;;29.93;;
10295;SDS011;5193;51.032;6.356;2022-10-18T09:59:26;54.13;;;27.60;;
10295;SDS011;5193;51.032;6.356;2022-10-18T10:01:58;61.80;;;29.90;;
10295;SDS011;5193;51.032;6.356;2022-10-18T10:04:25;59.20;;;27.93;;
10295;SDS011;5193;51.032;6.356;2022-10-18T10:06:52;56.37;;;27.40;;
10295;SDS011;5193;51.032;6.356;2022-10-18T10:09:30;55.50;;;27.23;;
10295;SDS011;5193;51.032;6.356;2022-10-18T10:12:00;54.57;;;27.33;;
10295;SDS011;5193;51.032;6.356;2022-10-18T10:14:27;53.00;;;27.20;;
10295;SDS011;5193;51.032;6.356;2022-10-18T10:19:30;45.57;;;25.73;;
10295;SDS011;5193;51.032;6.356;2022-10-18T10:24:42;54.10;;;27.37;;
10295;SDS011;5193;51.032;6.356;2022-10-18T10:27:23;45.47;;;24.80;;
10295;SDS011;5193;51.032;6.356;2022-10-18T10:29:55;48.47;;;25.83;;
10295;SDS011;5193;51.032;6.356;2022-10-18T10:32:23;47.47;;;25.80;;
10295;SDS011;5193;51.032;6.356;2022-10-18T10:34:52;56.07;;;26.40;;
10295;SDS011;5193;51.032;6.356;2022-10-18T10:40:04;46.93;;;25.00;;
10295;SDS011;5193;51.032;6.356;2022-10-18T10:42:51;44.07;;;24.80;;
10295;SDS011;5193;51.032;6.356;2022-10-18T10:45:20;41.23;;;23.63;;
10295;SDS011;5193;51.032;6.356;2022-10-18T10:47:47;44.17;;;23.70;;
10295;SDS011;5193;51.032;6.356;2022-10-18T10:50:20;46.43;;;25.93;;
10295;SDS011;5193;51.032;6.356;2022-10-18T10:52:51;43.83;;;24.23;;
10295;SDS011;5193;51.032;6.356;2022-10-18T10:55:18;43.53;;;25.47;;
10295;SDS011;5193;51.032;6.356;2022-10-18T10:57:51;42.87;;;23.90;;
10295;SDS011;5193;51.032;6.356;2022-10-18T11:03:13;39.43;;;22.93;;
10295;SDS011;5193;51.032;6.356;2022-10-18T11:05:46;38.50;;;23.70;;
10295;SDS011;5193;51.032;6.356;2022-10-18T11:08:23;46.17;;;24.33;;
10295;SDS011;5193;51.032;6.356;2022-10-18T11:13:55;36.63;;;22.00;;
10295;SDS011;5193;51.032;6.356;2022-10-18T11:18:57;34.53;;;20.60;;
10295;SDS011;5193;51.032;6.356;2022-10-18T11:21:34;33.00;;;18.90;;
10295;SDS011;5193;51.032;6.356;2022-10-18T11:24:01;31.57;;;19.20;;
10295;SDS011;5193;51.032;6.356;2022-10-18T11:26:48;31.13;;;18.00;;
10295;SDS011;5193;51.032;6.356;2022-10-18T11:29:36;28.67;;;17.37;;
10295;SDS011;5193;51.032;6.356;2022-10-18T11:32:29;28.57;;;17.83;;
10295;SDS011;5193;51.032;6.356;2022-10-18T11:38:48;28.57;;;16.80;;
10295;SDS011;5193;51.032;6.356;2022-10-18T11:41:11;26.90;;;17.40;;
10295;SDS011;5193;51.032;6.356;2022-10-18T11:43:56;24.23;;;16.03;;
10295;SDS011;5193;51.032;6.356;2022-10-18T12:00:18;22.57;;;15.97;;
10295;SDS011;5193;51.032;6.356;2022-10-18T12:05:17;27.03;;;16.23;;
10295;SDS011;5193;51.032;6.356;2022-10-18T12:07:59;22.93;;;16.43;;
10295;SDS011;5193;51.032;6.356;2022-10-18T12:10:32;22.27;;;16.00;;
10295;SDS011;5193;51.032;6.356;2022-10-18T12:13:02;24.43;;;16.33;;
10295;SDS011;5193;51.032;6.356;2022-10-18T12:15:35;18.93;;;12.70;;
10295;SDS011;5193;51.032;6.356;2022-10-18T12:18:11;19.87;;;12.03;;
10295;SDS011;5193;51.032;6.356;2022-10-18T12:20:46;18.10;;;13.00;;
10295;SDS011;5193;51.032;6.356;2022-10-18T12:26:15;19.83;;;13.97;;
10295;SDS011;5193;51.032;6.356;2022-10-18T12:31:38;19.23;;;12.90;;
10295;SDS011;5193;51.032;6.356;2022-10-18T12:37:02;21.00;;;12.63;;
10295;SDS011;5193;51.032;6.356;2022-10-18T12:42:47;25.93;;;14.37;;
10295;SDS011;5193;51.032;6.356;2022-10-18T12:47:59;20.20;;;13.27;;
10295;SDS011;5193;51.032;6.356;2022-10-18T12:50:46;27.00;;;13.90;;
10295;SDS011;5193;51.032;6.356;2022-10-18T12:53:25;25.07;;;15.20;;
10295;SDS011;5193;51.032;6.356;2022-10-18T12:55:52;31.73;;;17.87;;
10295;SDS011;5193;51.032;6.356;2022-10-18T13:16:40;23.27;;;14.83;;
10295;SDS011;5193;51.032;6.356;2022-10-18T13:25:19;19.83;;;11.60;;
10295;SDS011;5193;51.032;6.356;2022-10-18T13:27:55;19.27;;;11.87;;
10295;SDS011;5193;51.032;6.356;2022-10-18T13:30:47;20.30;;;11.70;;
10295;SDS011;5193;51.032;6.356;2022-10-18T13:33:37;19.20;;;10.87;;
10295;SDS011;5193;51.032;6.356;2022-10-18T13:43:56;18.20;;;9.90;;
10295;SDS011;5193;51.032;6.356;2022-10-18T13:48:49;16.33;;;8.40;;
10295;SDS011;5193;51.032;6.356;2022-10-18T13:56:53;15.67;;;8.50;;
10295;SDS011;5193;51.032;6.356;2022-10-18T13:59:27;18.80;;;8.83;;
10295;SDS011;5193;51.032;6.356;2022-10-18T14:07:50;14.17;;;6.63;;
10295;SDS011;5193;51.032;6.356;2022-10-18T14:10:27;15.73;;;6.40;;
10295;SDS011;5193;51.032;6.356;2022-10-18T14:13:03;14.50;;;6.67;;
10295;SDS011;5193;51.032;6.356;2022-10-18T14:15:31;17.23;;;7.37;;
10295;SDS011;5193;51.032;6.356;2022-10-18T14:18:06;10.80;;;6.20;;
10295;SDS011;5193;51.032;6.356;2022-10-18T14:20:39;12.10;;;6.23;;
10295;SDS011;5193;51.032;6.356;2022-10-18T14:23:11;16.10;;;6.47;;
10295;SDS011;5193;51.032;6.356;2022-10-18T14:25:41;14.67;;;5.77;;
10295;SDS011;5193;51.032;6.356;2022-10-18T14:30:50;10.47;;;3.30;;
10295;SDS011;5193;51.032;6.356;2022-10-18T14:33:37;11.57;;;3.80;;
10295;SDS011;5193;51.032;6.356;2022-10-18T14:38:35;9.47;;;3.70;;
10295;SDS011;5193;51.032;6.356;2022-10-18T14:41:16;8.67;;;3.70;;
10295;SDS011;5193;51.032;6.356;2022-10-18T14:43:46;7.07;;;3.50;;
10295;SDS011;5193;51.032;6.356;2022-10-18T14:46:22;8.90;;;3.40;;
10295;SDS011;5193;51.032;6.356;2022-10-18T14:48:56;13.67;;;4.23;;
10295;SDS011;5193;51.032;6.356;2022-10-18T14:51:24;8.63;;;4.50;;
10295;SDS011;5193;51.032;6.356;2022-10-18T14:53:52;10.80;;;4.87;;
10295;SDS011;5193;51.032;6.356;2022-10-18T14:56:25;9.00;;;4.50;;
10295;SDS011;5193;51.032;6.356;2022-10-18T14:59:01;10.83;;;5.10;;
10295;SDS011;5193;51.032;6.356;2022-10-18T15:01:29;12.77;;;4.77;;
10295;SDS011;5193;51.032;6.356;2022-10-18T15:03:56;11.50;;;4.83;;
10295;SDS011;5193;51.032;6.356;2022-10-18T15:06:24;12.77;;;4.80;;
10295;SDS011;5193;51.032;6.356;2022-10-18T15:08:53;9.67;;;4.37;;
10295;SDS011;5193;51.032;6.356;2022-10-18T15:11:22;12.43;;;4.77;;
10295;SDS011;5193;51.032;6.356;2022-10-18T15:16:21;11.20;;;5.23;;
10295;SDS011;5193;51.032;6.356;2022-10-18T15:21:30;12.30;;;4.90;;
10295;SDS011;5193;51.032;6.356;2022-10-18T15:26:57;14.27;;;5.53;;
10295;SDS011;5193;51.032;6.356;2022-10-18T15:29:25;13.27;;;5.30;;
10295;SDS011;5193;51.032;6.356;2022-10-18T15:31:59;10.90;;;4.67;;
10295;SDS011;5193;51.032;6.356;2022-10-18T15:34:30;15.43;;;6.10;;
10295;SDS011;5193;51.032;6.356;2022-10-18T15:36:56;13.53;;;7.10;;
10295;SDS011;5193;51.032;6.356;2022-10-18T15:41:55;15.07;;;6.03;;
10295;SDS011;5193;51.032;6.356;2022-10-18T15:44:30;13.30;;;5.93;;
10295;SDS011;5193;51.032;6.356;2022-10-18T15:54:45;12.70;;;6.03;;
10295;SDS011;5193;51.032;6.356;2022-10-18T15:57:11;12.00;;;5.40;;
10295;SDS011;5193;51.032;6.356;2022-10-18T15:59:38;12.47;;;5.63;;
10295;SDS011;5193;51.032;6.356;2022-10-18T16:02:33;12.90;;;6.67;;
10295;SDS011;5193;51.032;6.356;2022-10-18T16:04:58;12.90;;;6.77;;
10295;SDS011;5193;51.032;6.356;2022-10-18T16:07:25;13.67;;;5.10;;
10295;SDS011;5193;51.032;6.356;2022-10-18T16:09:51;14.07;;;5.53;;
10295;SDS011;5193;51.032;6.356;2022-10-18T16:12:16;13.20;;;5.70;;
10295;SDS011;5193;51.032;6.356;2022-10-18T16:14:42;12.60;;;5.20;;
10295;SDS011;5193;51.032;6.356;2022-10-18T16:17:09;13.03;;;5.87;;
10295;SDS011;5193;51.032;6.356;2022-10-18T16:19:40;12.53;;;5.17;;
10295;SDS011;5193;51.032;6.356;2022-10-18T16:22:11;11.70;;;5.20;;
10295;SDS011;5193;51.032;6.356;2022-10-18T16:24:38;11.33;;;5.27;;
10295;SDS011;5193;51.032;6.356;2022-10-18T16:27:04;8.07;;;4.83;;
10295;SDS011;5193;51.032;6.356;2022-10-18T16:29:30;10.13;;;4.57;;
10295;SDS011;5193;51.032;6.356;2022-10-18T16:31:57;11.40;;;5.20;;
10295;SDS011;5193;51.032;6.356;2022-10-18T16:34:24;8.73;;;4.47;;
10295;SDS011;5193;51.032;6.356;2022-10-18T16:36:51;9.03;;;4.97;;
10295;SDS011;5193;51.032;6.356;2022-10-18T16:39:18;10.43;;;5.67;;
10295;SDS011;5193;51.032;6.356;2022-10-18T16:41:45;11.10;;;5.63;;
10295;SDS011;5193;51.032;6.356;2022-10-18T16:44:11;10.40;;;6.60;;
10295;SDS011;5193;51.032;6.356;2022-10-18T16:46:37;15.43;;;6.30;;
10295;SDS011;5193;51.032;6.356;2022-10-18T16:49:04;9.70;;;5.97;;
10295;SDS011;5193;51.032;6.356;2022-10-18T16:51:30;10.17;;;6.47;;
10295;SDS011;5193;51.032;6.356;2022-10-18T16:53:56;12.57;;;6.77;;
10295;SDS011;5193;51.032;6.356;2022-10-18T16:56:23;10.73;;;5.60;;
10295;SDS011;5193;51.032;6.356;2022-10-18T16:58:51;9.23;;;5.70;;
10295;SDS011;5193;51.032;6.356;2022-10-18T17:01:18;11.40;;;5.33;;
10295;SDS011;5193;51.032;6.356;2022-10-18T17:03:46;11.10;;;5.57;;
10295;SDS011;5193;51.032;6.356;2022-10-18T17:06:16;12.13;;;5.20;;
10295;SDS011;5193;51.032;6.356;2022-10-18T17:08:50;7.77;;;5.30;;
10295;SDS011;5193;51.032;6.356;2022-10-18T17:11:17;9.77;;;5.90;;
10295;SDS011;5193;51.032;6.356;2022-10-18T17:13:46;10.60;;;5.93;;
10295;SDS011;5193;51.032;6.356;2022-10-18T17:16:33;10.73;;;5.60;;
10295;SDS011;5193;51.032;6.356;2022-10-18T17:19:00;8.63;;;5.30;;
10295;SDS011;5193;51.032;6.356;2022-10-18T17:21:28;10.70;;;6.07;;
10295;SDS011;5193;51.032;6.356;2022-10-18T17:23:55;12.97;;;5.70;;
10295;SDS011;5193;51.032;6.356;2022-10-18T17:26:26;13.17;;;6.00;;
10295;SDS011;5193;51.032;6.356;2022-10-18T17:28:52;13.57;;;6.27;;
10295;SDS011;5193;51.032;6.356;2022-10-18T17:31:20;13.10;;;6.27;;
10295;SDS011;5193;51.032;6.356;2022-10-18T17:33:46;13.27;;;5.97;;
10295;SDS011;5193;51.032;6.356;2022-10-18T17:36:12;12.20;;;6.87;;
10295;SDS011;5193;51.032;6.356;2022-10-18T17:38:38;13.17;;;7.30;;
10295;SDS011;5193;51.032;6.356;2022-10-18T17:41:07;12.57;;;5.20;;
10295;SDS011;5193;51.032;6.356;2022-10-18T17:43:35;14.10;;;6.80;;